Big Bear Station Historical Data
Daily Summary for January 25, 2017 Units:  English    Metric   Both
« Previous Day
Next Day »
Daily Weekly Monthly Yearly Custom
  High: Low: Average:
Temperature: 32.4 °F 5.0 °F 16.6 °F
Dew Point: 27.2 °F 3.2 °F 14.3 °F
Humidity: 96 % 70 % 91 %
Wind Speed: 4.7 mph 0.0 mph 0.6 mph
Wind Gust: -999.0 mph - -
Wind:- - West
Pressure: 30.20 in 30.05 in -
Precipitation: 0.00 in    
Historical Graphs
 
 
Tabular Data for January 25, 2017
Time Temperature Dew Point Pressure Wind Wind Speed Wind Gust Humidity Rainfall Rate (Hourly)
00:00 10.8 °F 9.4 °F 30.05 in Calm   -999.0 mph 94 % 0 in
00:15 10.9 °F 9.5 °F 30.06 in South 2.2 mph -999.0 mph 94 % 0 in
00:30 10.4 °F 9.0 °F 30.05 in SSE 1.7 mph -999.0 mph 94 % 0 in
00:46 10.6 °F 9.2 °F 30.06 in Calm   -999.0 mph 94 % 0 in
01:01 10.8 °F 9.4 °F 30.06 in Calm   -999.0 mph 94 % 0 in
01:16 10.9 °F 9.5 °F 30.06 in Calm   -999.0 mph 94 % 0 in
01:32 10.4 °F 9.0 °F 30.07 in Calm   -999.0 mph 94 % 0 in
01:47 9.9 °F 8.5 °F 30.07 in Calm   -999.0 mph 94 % 0 in
02:02 9.9 °F 8.5 °F 30.07 in Calm   -999.0 mph 94 % 0 in
02:17 9.5 °F 7.9 °F 30.07 in Calm   -999.0 mph 93 % 0 in
02:32 9.0 °F 7.6 °F 30.07 in Calm   -999.0 mph 94 % 0 in
02:48 8.8 °F 7.4 °F 30.07 in Calm   -999.0 mph 94 % 0 in
03:03 8.4 °F 6.8 °F 30.07 in Calm   -999.0 mph 93 % 0 in
03:18 8.8 °F 7.4 °F 30.07 in Calm   -999.0 mph 94 % 0 in
03:33 9.7 °F 8.3 °F 30.07 in Calm   -999.0 mph 94 % 0 in
03:48 10.6 °F 9.5 °F 30.07 in Calm   -999.0 mph 95 % 0 in
04:04 11.3 °F 10.1 °F 30.07 in Calm   -999.0 mph 95 % 0 in
04:19 11.5 °F 10.3 °F 30.08 in Calm   -999.0 mph 95 % 0 in
04:34 11.5 °F 10.3 °F 30.08 in Calm   -999.0 mph 95 % 0 in
04:49 11.1 °F 9.7 °F 30.08 in Calm   -999.0 mph 94 % 0 in
05:04 10.0 °F 8.4 °F 30.08 in Calm   -999.0 mph 93 % 0 in
05:20 9.0 °F 7.4 °F 30.09 in Calm   -999.0 mph 93 % 0 in
05:35 8.2 °F 6.4 °F 30.09 in Calm   -999.0 mph 92 % 0 in
05:50 7.5 °F 5.7 °F 30.10 in Calm   -999.0 mph 92 % 0 in
06:05 7.0 °F 5.2 °F 30.10 in Calm   -999.0 mph 92 % 0 in
06:21 6.3 °F 4.5 °F 30.10 in Calm   -999.0 mph 92 % 0 in
06:36 6.1 °F 4.5 °F 30.11 in Calm   -999.0 mph 93 % 0 in
06:51 5.7 °F 4.1 °F 30.11 in Calm   -999.0 mph 93 % 0 in
07:06 5.4 °F 3.8 °F 30.12 in Calm   -999.0 mph 93 % 0 in
07:21 5.2 °F 3.6 °F 30.12 in Calm   -999.0 mph 93 % 0 in
07:37 5.0 °F 3.4 °F 30.13 in Calm   -999.0 mph 93 % 0 in
07:52 5.0 °F 3.2 °F 30.13 in Calm   -999.0 mph 92 % 0 in
08:07 5.4 °F 3.6 °F 30.13 in Calm   -999.0 mph 92 % 0 in
08:22 6.3 °F 4.7 °F 30.14 in Calm   -999.0 mph 93 % 0 in
08:37 6.3 °F 4.2 °F 30.14 in Calm   -999.0 mph 91 % 0 in
08:53 7.9 °F 6.1 °F 30.14 in Calm   -999.0 mph 92 % 0 in
09:08 9.0 °F 7.2 °F 30.15 in Calm   -999.0 mph 92 % 0 in
09:23 10.8 °F 8.9 °F 30.16 in Calm   -999.0 mph 92 % 0 in
09:38 12.4 °F 10.8 °F 30.16 in Calm   -999.0 mph 93 % 0 in
09:53 14.4 °F 12.7 °F 30.16 in Calm   -999.0 mph 93 % 0 in
10:09 16.3 °F 14.6 °F 30.16 in Calm   -999.0 mph 93 % 0 in
10:24 18.9 °F 17.5 °F 30.16 in Calm   -999.0 mph 94 % 0 in
10:39 20.5 °F 18.8 °F 30.16 in Calm   -999.0 mph 93 % 0 in
10:54 23.2 °F 21.7 °F 30.16 in Calm   -999.0 mph 94 % 0 in
11:09 25.3 °F 23.3 °F 30.16 in Calm   -999.0 mph 92 % 0 in
11:25 25.7 °F 23.2 °F 30.15 in NW 1.1 mph -999.0 mph 90 % 0 in
11:40 27.3 °F 21.6 °F 30.15 in West 1.1 mph -999.0 mph 79 % 0 in
11:55 28.9 °F 24.4 °F 30.15 in NW 3.7 mph -999.0 mph 83 % 0 in
12:10 30.4 °F 25.6 °F 30.15 in WNW 4.7 mph -999.0 mph 82 % 0 in
12:26 32.0 °F 26.8 °F 30.14 in SW 1.7 mph -999.0 mph 81 % 0 in
12:41 32.4 °F 27.2 °F 30.14 in West 1.1 mph -999.0 mph 81 % 0 in
12:56 32.4 °F 26.0 °F 30.14 in NNW 3.7 mph -999.0 mph 77 % 0 in
13:11 30.9 °F 25.8 °F 30.13 in NW 3.2 mph -999.0 mph 81 % 0 in
13:27 31.1 °F 26.5 °F 30.14 in NW 2.2 mph -999.0 mph 83 % 0 in
13:42 30.4 °F 25.6 °F 30.14 in WNW 2.2 mph -999.0 mph 82 % 0 in
13:57 29.7 °F 25.7 °F 30.14 in WNW 1.1 mph -999.0 mph 85 % 0 in
14:12 29.8 °F 23.2 °F 30.14 in East 4.7 mph -999.0 mph 76 % 0 in
14:28 29.3 °F 21.4 °F 30.14 in Calm   -999.0 mph 72 % 0 in
14:43 28.8 °F 22.2 °F 30.14 in WNW 1.7 mph -999.0 mph 76 % 0 in
14:58 27.5 °F 21.2 °F 30.14 in Calm   -999.0 mph 77 % 0 in
15:13 27.3 °F 18.8 °F 30.14 in Calm   -999.0 mph 70 % 0 in
15:28 26.6 °F 22.4 °F 30.14 in Calm   -999.0 mph 84 % 0 in
15:44 26.8 °F 23.5 °F 30.14 in WNW 1.7 mph -999.0 mph 87 % 0 in
15:59 27.0 °F 23.9 °F 30.14 in Calm   -999.0 mph 88 % 0 in
16:14 26.6 °F 23.5 °F 30.14 in NW 1.7 mph -999.0 mph 88 % 0 in
16:29 26.4 °F 24.1 °F 30.15 in NW 1.7 mph -999.0 mph 91 % 0 in
16:45 26.1 °F 24.1 °F 30.15 in WNW 2.7 mph -999.0 mph 92 % 0 in
17:00 25.5 °F 23.5 °F 30.15 in SW 2.2 mph -999.0 mph 92 % 0 in
17:15 25.0 °F 23.3 °F 30.15 in Calm   -999.0 mph 93 % 0 in
17:31 24.4 °F 22.9 °F 30.16 in NW 1.7 mph -999.0 mph 94 % 0 in
17:46 23.9 °F 22.7 °F 30.16 in Calm   -999.0 mph 95 % 0 in
18:01 23.4 °F 22.2 °F 30.16 in Calm   -999.0 mph 95 % 0 in
18:16 22.5 °F 21.3 °F 30.16 in Calm   -999.0 mph 95 % 0 in
18:31 21.6 °F 20.4 °F 30.16 in Calm   -999.0 mph 95 % 0 in
18:47 21.0 °F 20.0 °F 30.16 in Calm   -999.0 mph 96 % 0 in
19:02 20.1 °F 19.1 °F 30.17 in Calm   -999.0 mph 96 % 0 in
19:17 19.0 °F 17.3 °F 30.17 in Calm   -999.0 mph 93 % 0 in
19:32 18.5 °F 16.3 °F 30.18 in NNW 1.7 mph -999.0 mph 91 % 0 in
19:47 17.8 °F 15.9 °F 30.18 in Calm   -999.0 mph 92 % 0 in
20:03 17.1 °F 15.4 °F 30.18 in SSE 1.1 mph -999.0 mph 93 % 0 in
20:18 16.5 °F 14.8 °F 30.18 in Calm   -999.0 mph 93 % 0 in
20:33 16.2 °F 14.8 °F 30.19 in Calm   -999.0 mph 94 % 0 in
20:48 15.6 °F 14.2 °F 30.19 in Calm   -999.0 mph 94 % 0 in
21:04 15.3 °F 13.9 °F 30.19 in South 3.2 mph -999.0 mph 94 % 0 in
21:19 14.7 °F 12.8 °F 30.19 in Calm   -999.0 mph 92 % 0 in
21:34 14.2 °F 12.3 °F 30.20 in South 2.7 mph -999.0 mph 92 % 0 in
21:49 13.8 °F 11.9 °F 30.19 in Calm   -999.0 mph 92 % 0 in
22:04 13.5 °F 11.6 °F 30.19 in SSE 2.2 mph -999.0 mph 92 % 0 in
22:20 13.1 °F 11.2 °F 30.19 in Calm   -999.0 mph 92 % 0 in
22:35 12.6 °F 10.7 °F 30.19 in Calm   -999.0 mph 92 % 0 in
22:50 12.2 °F 10.3 °F 30.19 in Calm   -999.0 mph 92 % 0 in
23:05 11.8 °F 9.9 °F 30.20 in Calm   -999.0 mph 92 % 0 in
23:20 11.8 °F 9.9 °F 30.20 in Calm   -999.0 mph 92 % 0 in
23:36 11.5 °F 9.9 °F 30.20 in Calm   -999.0 mph 93 % 0 in
23:51 10.9 °F 9.3 °F 30.20 in Calm   -999.0 mph 93 % 0 in
Big Bear CA Weather
Compliments of Weather Underground - 1.5 mb